createdAt,value
2023-04-03T00:02:11.778Z,102076.22
2023-04-03T00:04:39.567Z,102079.69
2023-04-03T00:07:07.322Z,102074.72
2023-04-03T00:09:35.073Z,102084.59
2023-04-03T00:12:02.795Z,102084.09
2023-04-03T00:14:30.462Z,102098.69
2023-04-03T00:16:58.178Z,102082.13
2023-04-03T00:19:27.279Z,102078.06
2023-04-03T00:21:55.454Z,102089.97
2023-04-03T00:24:23.428Z,102096.41
2023-04-03T00:26:51.179Z,102099.22
2023-04-03T00:29:18.978Z,102106.25
2023-04-03T00:31:46.763Z,102089.94
2023-04-03T00:34:14.392Z,102084.56
2023-04-03T00:36:43.772Z,102089.88
2023-04-03T00:39:11.445Z,102097.16
2023-04-03T00:41:39.105Z,102101.50
2023-04-03T00:44:22.145Z,102100.06
2023-04-03T00:46:49.823Z,102109.28
2023-04-03T00:49:17.430Z,102098.78
2023-04-03T00:51:46.536Z,102117.75
2023-04-03T00:54:14.501Z,102105.38
2023-04-03T00:56:48.766Z,102088.19
2023-04-03T00:59:19.311Z,102111.47
2023-04-03T01:01:47.120Z,102102.91
2023-04-03T01:04:29.135Z,102099.34
2023-04-03T01:07:00.604Z,102097.25
2023-04-03T01:09:28.447Z,102101.31
2023-04-03T01:11:56.117Z,102102.06
2023-04-03T01:14:23.757Z,102107.28
2023-04-03T01:16:55.238Z,102095.44
2023-04-03T01:19:24.099Z,102106.63
2023-04-03T01:22:15.968Z,102095.66
2023-04-03T01:24:43.606Z,102102.81
2023-04-03T01:27:13.117Z,102104.09
2023-04-03T01:29:42.394Z,102109.81
2023-04-03T01:32:11.507Z,102090.25
2023-04-03T01:34:39.260Z,102088.94
2023-04-03T01:37:07.053Z,102104.53
2023-04-03T01:39:34.730Z,102122.56
2023-04-03T01:42:02.349Z,102137.41
2023-04-03T01:44:30.073Z,102120.50
2023-04-03T01:46:57.767Z,102127.75
2023-04-03T01:49:26.941Z,102122.56
2023-04-03T01:51:54.591Z,102122.31
2023-04-03T01:54:22.279Z,102125.44
2023-04-03T01:56:49.936Z,102125.22
2023-04-03T01:59:19.094Z,102134.63
2023-04-03T02:01:47.014Z,102134.22
2023-04-03T02:04:15.259Z,102127.34
2023-04-03T02:06:44.368Z,102136.59
2023-04-03T02:09:12.104Z,102130.50
2023-04-03T02:11:39.732Z,102134.31
2023-04-03T02:14:07.729Z,102136.56
2023-04-03T02:16:35.423Z,102131.47
2023-04-03T02:19:03.138Z,102142.31
2023-04-03T02:21:30.920Z,102131.56
2023-04-03T02:24:00.073Z,102133.91
2023-04-03T02:26:27.844Z,102119.09
2023-04-03T02:28:55.533Z,102113.22
2023-04-03T02:31:23.281Z,102118.19
2023-04-03T02:33:51.121Z,102138.78
2023-04-03T02:36:19.114Z,102137.16
2023-04-03T02:38:47.327Z,102138.53
2023-04-03T02:41:16.374Z,102141.44
2023-04-03T02:43:43.990Z,102142.06
2023-04-03T02:46:11.812Z,102133.84
2023-04-03T02:48:39.606Z,102144.97
2023-04-03T02:51:07.497Z,102138.81
2023-04-03T02:53:35.130Z,102149.66
2023-04-03T02:56:02.759Z,102149.91
2023-04-03T02:58:31.779Z,102134.97
2023-04-03T03:00:59.474Z,102138.31
2023-04-03T03:03:27.242Z,102140.56
2023-04-03T03:06:03.516Z,102150.50
2023-04-03T03:08:31.554Z,102127.16
2023-04-03T03:10:59.220Z,102131.53
2023-04-03T03:13:27.192Z,102146.75
2023-04-03T03:15:56.387Z,102138.75
2023-04-03T03:18:24.104Z,102134.31
2023-04-03T03:20:53.610Z,102143.97
2023-04-03T03:23:21.828Z,102134.75
2023-04-03T03:25:49.529Z,102148.25
2023-04-03T03:28:17.226Z,102148.13
2023-04-03T03:30:44.854Z,102144.34
2023-04-03T03:33:13.908Z,102143.56
2023-04-03T03:35:41.970Z,102157.59
2023-04-03T03:38:09.651Z,102151.19
2023-04-03T03:40:37.294Z,102139.91
2023-04-03T03:43:05.301Z,102157.66
2023-04-03T03:45:33.269Z,102152.78
2023-04-03T03:48:01.265Z,102150.19
2023-04-03T03:50:30.405Z,102158.69
2023-04-03T03:52:58.248Z,102155.44
2023-04-03T03:55:26.134Z,102167.69
2023-04-03T03:57:53.862Z,102147.25
2023-04-03T04:00:21.734Z,102149.97
2023-04-03T04:02:49.564Z,102158.06
2023-04-03T04:05:17.411Z,102157.94
2023-04-03T04:07:46.423Z,102149.69
2023-04-03T04:10:14.803Z,102155.72
2023-04-03T04:12:42.549Z,102174.75
2023-04-03T04:15:11.566Z,102157.78
2023-04-03T04:17:39.208Z,102142.78
2023-04-03T04:20:07.684Z,102152.28
2023-04-03T04:22:35.312Z,102161.56
2023-04-03T04:25:04.990Z,102176.03
2023-04-03T04:27:32.636Z,102175.25
2023-04-03T04:30:00.352Z,102168.56
2023-04-03T04:32:28.020Z,102161.44
2023-04-03T04:34:55.879Z,102175.03
2023-04-03T04:37:23.658Z,102184.16
2023-04-03T04:39:51.333Z,102178.50
2023-04-03T04:42:20.365Z,102169.75
2023-04-03T04:44:47.997Z,102184.69
2023-04-03T04:47:15.802Z,102192.94
2023-04-03T04:49:59.178Z,102187.88
2023-04-03T04:52:26.794Z,102188.19
2023-04-03T04:55:17.548Z,102186.47
2023-04-03T04:57:46.587Z,102203.81
2023-04-03T05:00:15.901Z,102205.94
2023-04-03T05:02:43.574Z,102212.50
2023-04-03T05:05:11.458Z,102211.38
2023-04-03T05:07:39.232Z,102212.06
2023-04-03T05:10:08.312Z,102215.25
2023-04-03T05:12:36.374Z,102208.88
2023-04-03T05:15:06.335Z,102221.47
2023-04-03T05:17:34.031Z,102217.53
2023-04-03T05:20:01.780Z,102225.34
2023-04-03T05:22:29.400Z,102217.38
2023-04-03T05:24:57.014Z,102215.84
2023-04-03T05:27:25.573Z,102203.84
2023-04-03T05:29:54.886Z,102217.53
2023-04-03T05:32:24.400Z,102227.75
2023-04-03T05:34:52.726Z,102226.19
2023-04-03T05:37:20.566Z,102221.84
2023-04-03T05:39:48.644Z,102223.50
2023-04-03T05:42:16.905Z,102230.84
2023-04-03T05:44:45.225Z,102232.00
2023-04-03T05:47:13.317Z,102235.69
2023-04-03T05:49:42.653Z,102241.56
2023-04-03T05:52:15.940Z,102239.75
2023-04-03T05:54:44.068Z,102236.25
2023-04-03T05:57:12.989Z,102242.41
2023-04-03T05:59:40.677Z,102252.06
2023-04-03T06:02:08.547Z,102245.19
2023-04-03T06:04:36.334Z,102237.53
2023-04-03T06:07:05.544Z,102251.06
2023-04-03T06:09:33.266Z,102248.84
2023-04-03T06:12:16.137Z,102256.41
2023-04-03T06:14:43.788Z,102248.22
2023-04-03T06:17:13.520Z,102242.78
2023-04-03T06:19:45.450Z,102263.94
2023-04-03T06:22:15.057Z,102249.69
2023-04-03T06:24:42.834Z,102251.28
2023-04-03T06:27:11.904Z,102257.94
2023-04-03T06:33:16.055Z,102255.75
2023-04-03T06:35:43.743Z,102256.91
2023-04-03T06:38:13.242Z,102251.72
2023-04-03T06:40:41.257Z,102242.38
2023-04-03T06:43:09.463Z,102269.50
2023-04-03T06:45:37.818Z,102268.38
2023-04-03T06:51:20.951Z,102263.53
2023-04-03T06:53:50.932Z,102268.09
2023-04-03T06:56:35.253Z,102282.00
2023-04-03T06:59:03.232Z,102284.66
2023-04-03T07:01:32.034Z,102285.84
2023-04-03T07:03:59.833Z,102274.13
2023-04-03T07:06:28.610Z,102289.63
2023-04-03T07:08:58.106Z,102278.66
2023-04-03T07:11:25.941Z,102296.72
2023-04-03T07:13:53.803Z,102286.78
2023-04-03T07:18:59.071Z,102279.53
2023-04-03T07:21:27.024Z,102292.81
2023-04-03T07:23:55.346Z,102287.97
2023-04-03T07:26:24.685Z,102302.28
2023-04-03T07:28:52.549Z,102294.47
2023-04-03T07:31:20.884Z,102298.00
2023-04-03T07:33:51.040Z,102320.38
2023-04-03T07:36:21.566Z,102333.00
2023-04-03T07:38:50.332Z,102331.41
2023-04-03T07:41:21.369Z,102306.16
2023-04-03T07:43:51.812Z,102324.31
2023-04-03T07:46:21.708Z,102320.63
2023-04-03T07:48:49.818Z,102308.16
2023-04-03T07:51:17.614Z,102300.34
2023-04-03T07:53:45.341Z,102319.53
2023-04-03T07:56:13.003Z,102331.03
2023-04-03T07:58:47.753Z,102319.69
2023-04-03T08:01:19.232Z,102324.25
2023-04-03T08:03:47.049Z,102327.06
2023-04-03T08:06:21.666Z,102319.53
2023-04-03T08:08:54.520Z,102318.56
2023-04-03T08:11:22.396Z,102328.22
2023-04-03T08:13:51.405Z,102317.53
2023-04-03T08:16:24.686Z,102335.13
2023-04-03T08:18:53.389Z,102337.28
2023-04-03T08:21:21.406Z,102330.78
2023-04-03T08:23:55.145Z,102319.56
2023-04-03T08:26:23.672Z,102327.56
2023-04-03T08:28:51.596Z,102325.91
2023-04-03T08:31:21.732Z,102328.59
2023-04-03T08:33:50.278Z,102320.22
2023-04-03T08:36:21.277Z,102321.16
2023-04-03T08:38:49.673Z,102322.09
2023-04-03T08:41:25.396Z,102337.97
2023-04-03T08:44:00.062Z,102328.88
2023-04-03T08:46:38.338Z,102335.25
2023-04-03T08:49:07.112Z,102323.72
2023-04-03T08:51:35.145Z,102321.41
2023-04-03T08:54:05.553Z,102322.91
2023-04-03T08:56:34.080Z,102320.06
2023-04-03T08:59:06.418Z,102314.59
2023-04-03T09:01:38.616Z,102327.72
2023-04-03T09:04:12.882Z,102322.34
2023-04-03T09:06:45.549Z,102312.72
2023-04-03T09:09:16.746Z,102322.91
2023-04-03T09:11:53.064Z,102330.91
2023-04-03T09:14:26.113Z,102327.72
2023-04-03T09:16:58.325Z,102336.28
2023-04-03T09:19:45.676Z,102326.28
2023-04-03T09:22:19.346Z,102326.88
2023-04-03T09:24:47.924Z,102319.28
2023-04-03T09:27:27.783Z,102324.75
2023-04-03T09:29:56.576Z,102332.13
2023-04-03T09:32:29.946Z,102322.63
2023-04-03T09:35:03.803Z,102331.78
2023-04-03T09:37:41.533Z,102322.41
2023-04-03T09:40:39.638Z,102332.56
2023-04-03T09:43:24.138Z,102311.00
2023-04-03T09:45:53.055Z,102329.28
2023-04-03T09:48:24.399Z,102306.28
2023-04-03T09:50:59.902Z,102300.44
2023-04-03T09:53:31.433Z,102308.38
2023-04-03T09:55:59.997Z,102311.81
2023-04-03T09:58:42.848Z,102326.19
2023-04-03T10:01:26.059Z,102327.06
2023-04-03T10:04:11.812Z,102322.22
2023-04-03T10:06:47.735Z,102303.09
2023-04-03T10:09:21.486Z,102291.75
2023-04-03T10:12:05.726Z,102318.31
2023-04-03T10:14:34.600Z,102297.63
2023-04-03T10:17:13.307Z,102307.19
2023-04-03T10:19:44.666Z,102310.91
2023-04-03T10:22:21.278Z,102313.28
2023-04-03T10:24:56.486Z,102306.53
2023-04-03T10:27:32.204Z,102303.28
2023-04-03T10:30:04.708Z,102293.63
2023-04-03T10:32:45.295Z,102312.06
2023-04-03T10:35:28.235Z,102287.84
2023-04-03T10:38:03.960Z,102291.69
2023-04-03T10:44:46.151Z,102292.66
2023-04-03T10:47:18.711Z,102282.25
2023-04-03T10:49:59.289Z,102290.88
2023-04-03T10:52:35.460Z,102294.56
2023-04-03T10:55:11.658Z,102303.25
2023-04-03T10:57:40.029Z,102290.84
2023-04-03T11:00:10.504Z,102273.47
2023-04-03T11:02:40.926Z,102276.66
2023-04-03T11:05:17.910Z,102265.31
2023-04-03T11:07:50.276Z,102282.94
2023-04-03T11:10:27.972Z,102252.34
2023-04-03T11:15:40.985Z,102271.97
2023-04-03T11:18:11.830Z,102254.06
2023-04-03T11:20:41.030Z,102271.69
2023-04-03T11:23:16.272Z,102288.69
2023-04-03T11:25:45.912Z,102277.91
2023-04-03T11:28:14.695Z,102266.81
2023-04-03T11:30:47.652Z,102260.31
2023-04-03T11:33:25.911Z,102280.09
2023-04-03T11:35:55.183Z,102270.13
2023-04-03T11:38:27.544Z,102277.28
2023-04-03T11:40:56.597Z,102252.84
2023-04-03T11:43:27.778Z,102241.47
2023-04-03T11:45:59.695Z,102265.09
2023-04-03T11:48:51.059Z,102258.59
2023-04-03T11:51:42.661Z,102252.13
2023-04-03T11:54:45.452Z,102234.56
2023-04-03T11:57:48.033Z,102231.59
2023-04-03T12:00:51.691Z,102249.63
2023-04-03T12:03:51.981Z,102214.72
2023-04-03T12:06:45.547Z,102205.56
2023-04-03T12:09:25.766Z,102206.38
2023-04-03T12:11:55.092Z,102218.66
2023-04-03T12:14:25.287Z,102208.19
2023-04-03T12:16:54.848Z,102220.16
2023-04-03T12:19:42.506Z,102221.69
2023-04-03T12:22:16.885Z,102203.75
2023-04-03T12:24:46.310Z,102207.59
2023-04-03T12:27:31.352Z,102202.94
2023-04-03T12:30:04.547Z,102205.41
2023-04-03T12:32:45.797Z,102182.88
2023-04-03T12:35:21.691Z,102205.31
2023-04-03T12:38:06.111Z,102197.19
2023-04-03T12:40:38.098Z,102165.47
2023-04-03T12:43:22.863Z,102204.94
2023-04-03T12:45:56.000Z,102198.75
2023-04-03T12:48:27.370Z,102191.03
2023-04-03T12:50:57.000Z,102177.66
2023-04-03T12:53:27.153Z,102171.28
2023-04-03T12:55:56.413Z,102173.97
2023-04-03T12:58:27.298Z,102176.78
2023-04-03T13:01:03.541Z,102192.44
2023-04-03T13:03:32.215Z,102193.50
2023-04-03T13:06:02.871Z,102196.53
2023-04-03T13:08:31.507Z,102167.94
2023-04-03T13:11:02.620Z,102189.97
2023-04-03T13:13:31.989Z,102186.97
2023-04-03T13:16:00.754Z,102191.91
2023-04-03T13:18:32.231Z,102158.50
2023-04-03T13:21:04.724Z,102152.50
2023-04-03T13:23:33.397Z,102157.94
2023-04-03T13:26:04.546Z,102155.53
2023-04-03T13:28:34.629Z,102153.34
2023-04-03T13:31:06.561Z,102160.81
2023-04-03T13:33:59.323Z,102145.94
2023-04-03T13:36:30.555Z,102148.41
2023-04-03T13:39:03.518Z,102177.50
2023-04-03T13:41:32.926Z,102165.63
2023-04-03T13:44:26.746Z,102167.69
2023-04-03T13:46:56.225Z,102180.38
2023-04-03T13:49:29.798Z,102162.66
2023-04-03T13:52:07.411Z,102171.06
2023-04-03T13:54:38.328Z,102169.16
2023-04-03T13:57:14.344Z,102146.28
2023-04-03T13:59:44.195Z,102122.00
2023-04-03T14:02:19.680Z,102140.41
2023-04-03T14:04:51.706Z,102146.03
2023-04-03T14:07:21.143Z,102150.16
2023-04-03T14:09:49.090Z,102123.09
2023-04-03T14:12:30.036Z,102117.00
2023-04-03T14:15:00.769Z,102110.97
2023-04-03T14:17:29.482Z,102117.78
2023-04-03T14:19:58.011Z,102125.25
2023-04-03T14:22:27.789Z,102106.22
2023-04-03T14:24:56.166Z,102117.06
2023-04-03T14:27:25.478Z,102121.03
2023-04-03T14:29:54.415Z,102119.31
2023-04-03T14:32:25.496Z,102122.06
2023-04-03T14:34:54.085Z,102112.38
2023-04-03T14:37:24.643Z,102107.19
2023-04-03T14:39:54.382Z,102088.47
2023-04-03T14:42:24.593Z,102102.44
2023-04-03T14:44:52.899Z,102089.66
2023-04-03T14:47:31.341Z,102091.13
2023-04-03T14:50:00.431Z,102122.59
2023-04-03T14:52:30.113Z,102115.22
2023-04-03T14:54:58.087Z,102093.59
2023-04-03T14:57:27.167Z,102070.59
2023-04-03T14:59:54.943Z,102091.09
2023-04-03T15:02:29.424Z,102084.56
2023-04-03T15:04:58.156Z,102077.28
2023-04-03T15:07:26.728Z,102093.19
2023-04-03T15:09:57.130Z,102096.00
2023-04-03T15:12:25.065Z,102106.03
2023-04-03T15:15:00.263Z,102100.59
2023-04-03T15:17:31.167Z,102093.28
2023-04-03T15:19:58.976Z,102072.16
2023-04-03T15:22:26.662Z,102085.00
2023-04-03T15:24:54.438Z,102071.75
2023-04-03T15:27:22.150Z,102071.34
2023-04-03T15:30:00.172Z,102084.09
2023-04-03T15:32:30.434Z,102066.91
2023-04-03T15:35:00.677Z,102072.03
2023-04-03T15:37:28.346Z,102077.81
2023-04-03T15:39:56.306Z,102090.81
2023-04-03T15:42:23.968Z,102099.50
2023-04-03T15:44:51.697Z,102089.88
2023-04-03T15:47:19.491Z,102079.63
2023-04-03T15:49:47.160Z,102068.22
2023-04-03T15:52:16.307Z,102082.09
2023-04-03T15:54:44.068Z,102079.59
2023-04-03T15:57:11.939Z,102083.34
2023-04-03T15:59:39.689Z,102077.91
2023-04-03T16:02:08.625Z,102058.00
2023-04-03T16:04:36.437Z,102065.47
2023-04-03T16:07:04.444Z,102085.94
2023-04-03T16:09:35.012Z,102051.53
2023-04-03T16:12:03.051Z,102074.41
2023-04-03T16:14:31.415Z,102059.91
2023-04-03T16:17:00.125Z,102064.28
2023-04-03T16:19:27.980Z,102076.09
2023-04-03T16:21:56.001Z,102068.88
2023-04-03T16:24:23.693Z,102095.03
2023-04-03T16:26:54.330Z,102084.97
2023-04-03T16:29:37.284Z,102079.72
2023-04-03T16:32:05.437Z,102058.78
2023-04-03T16:34:33.788Z,102060.72
2023-04-03T16:37:01.700Z,102063.69
2023-04-03T16:39:29.536Z,102053.56
2023-04-03T16:41:59.144Z,102051.50
2023-04-03T16:44:27.142Z,102057.56
2023-04-03T16:46:54.990Z,102068.59
2023-04-03T16:49:22.939Z,102067.38
2023-04-03T16:51:51.384Z,102068.59
2023-04-03T16:54:19.137Z,102077.88
2023-04-03T16:56:47.462Z,102060.78
2023-04-03T16:59:16.565Z,102067.03
2023-04-03T17:01:44.404Z,102079.88
2023-04-03T17:04:12.228Z,102083.66
2023-04-03T17:06:40.359Z,102082.88
2023-04-03T17:09:08.246Z,102083.31
2023-04-03T17:14:04.160Z,102068.72
2023-04-03T17:16:35.164Z,102076.66
2023-04-03T17:19:03.111Z,102081.91
2023-04-03T17:21:30.963Z,102082.50
2023-04-03T17:24:02.366Z,102063.09
2023-04-03T17:26:30.863Z,102054.09
2023-04-03T17:28:58.523Z,102070.97
2023-04-03T17:31:26.288Z,102081.78
2023-04-03T17:33:55.471Z,102072.94
2023-04-03T17:36:23.437Z,102080.78
2023-04-03T17:38:52.240Z,102070.41
2023-04-03T17:41:19.912Z,102072.59
2023-04-03T17:43:47.960Z,102083.06
2023-04-03T17:46:16.813Z,102073.31
2023-04-03T17:48:45.497Z,102081.50
2023-04-03T17:51:17.152Z,102070.44
2023-04-03T17:53:45.511Z,102074.25
2023-04-03T17:56:15.222Z,102068.28
2023-04-03T18:01:28.353Z,102078.78
2023-04-03T18:03:58.007Z,102078.03
2023-04-03T18:06:28.975Z,102073.72
2023-04-03T18:08:59.560Z,102074.34
2023-04-03T18:11:28.754Z,102071.78
2023-04-03T18:14:00.274Z,102067.09
2023-04-03T18:16:29.761Z,102066.50
2023-04-03T18:19:17.658Z,102064.81
2023-04-03T18:21:50.437Z,102064.94
2023-04-03T18:24:20.152Z,102073.25
2023-04-03T18:26:51.311Z,102063.97
2023-04-03T18:29:19.185Z,102070.97
2023-04-03T18:31:50.375Z,102073.16
2023-04-03T18:34:18.068Z,102070.78
2023-04-03T18:36:46.139Z,102065.56
2023-04-03T18:39:15.761Z,102071.88
2023-04-03T18:41:43.651Z,102078.78
2023-04-03T18:44:14.616Z,102070.09
2023-04-03T18:46:42.420Z,102059.94
2023-04-03T18:49:10.802Z,102055.00
2023-04-03T18:51:39.920Z,102069.88
2023-04-03T18:54:09.747Z,102067.72
2023-04-03T18:56:39.356Z,102071.13
2023-04-03T18:59:07.145Z,102068.06
2023-04-03T19:01:35.012Z,102071.06
2023-04-03T19:04:02.842Z,102075.44
2023-04-03T19:06:30.802Z,102067.97
2023-04-03T19:08:59.700Z,102074.84
2023-04-03T19:11:30.064Z,102073.34
2023-04-03T19:14:14.300Z,102085.88
2023-04-03T19:16:43.404Z,102080.97
2023-04-03T19:19:11.166Z,102073.38
2023-04-03T19:21:41.720Z,102084.09
2023-04-03T19:24:09.948Z,102092.06
2023-04-03T19:26:37.721Z,102079.75
2023-04-03T19:29:06.854Z,102084.56
2023-04-03T19:31:36.804Z,102093.72
2023-04-03T19:34:04.989Z,102081.75
2023-04-03T19:36:33.662Z,102078.88
2023-04-03T19:39:01.689Z,102082.91
2023-04-03T19:41:32.211Z,102095.75
2023-04-03T19:43:59.936Z,102101.44
2023-04-03T19:46:30.155Z,102087.75
2023-04-03T19:48:58.699Z,102096.41
2023-04-03T19:51:26.495Z,102087.09
2023-04-03T19:53:54.639Z,102082.41
2023-04-03T19:56:23.529Z,102076.06
2023-04-03T19:58:54.183Z,102091.69
2023-04-03T20:01:22.631Z,102091.41
2023-04-03T20:03:52.216Z,102095.44
2023-04-03T20:06:20.118Z,102078.72
2023-04-03T20:08:47.849Z,102079.25
2023-04-03T20:11:15.554Z,102085.69
2023-04-03T20:13:43.273Z,102091.28
2023-04-03T20:16:11.064Z,102083.75
2023-04-03T20:18:39.570Z,102066.69
2023-04-03T20:21:08.940Z,102062.19
2023-04-03T20:26:24.619Z,102079.91
2023-04-03T20:28:52.405Z,102088.03
2023-04-03T20:31:20.157Z,102087.28
2023-04-03T20:33:48.603Z,102079.09
2023-04-03T20:36:18.237Z,102072.94
2023-04-03T20:38:46.181Z,102078.94
2023-04-03T20:41:13.920Z,102088.69
2023-04-03T20:43:42.862Z,102079.09
2023-04-03T20:46:10.846Z,102078.66
2023-04-03T20:51:25.460Z,102072.00
2023-04-03T20:53:53.155Z,102071.53
2023-04-03T20:56:20.831Z,102088.38
2023-04-03T20:58:49.588Z,102092.63
2023-04-03T21:01:19.259Z,102081.38
2023-04-03T21:03:48.119Z,102075.72
2023-04-03T21:06:53.086Z,102076.53
2023-04-03T21:09:58.530Z,102067.88
2023-04-03T21:13:03.608Z,102073.94
2023-04-03T21:15:51.974Z,102087.00
2023-04-03T21:18:34.293Z,102062.56
2023-04-03T21:21:03.103Z,102062.50
2023-04-03T21:23:31.249Z,102056.09
2023-04-03T21:25:59.023Z,102053.13
2023-04-03T21:28:27.424Z,102065.16
2023-04-03T21:30:55.390Z,102052.56
2023-04-03T21:33:24.912Z,102050.63
2023-04-03T21:35:57.779Z,102055.78
2023-04-03T21:38:27.386Z,102075.69
2023-04-03T21:40:57.761Z,102053.06
2023-04-03T21:43:25.591Z,102043.19
2023-04-03T21:45:54.387Z,102039.69
2023-04-03T21:48:22.335Z,102058.97
2023-04-03T21:50:52.526Z,102066.34
2023-04-03T21:53:20.904Z,102050.13
2023-04-03T21:55:55.381Z,102052.63
2023-04-03T21:58:23.151Z,102048.56
2023-04-03T22:00:51.100Z,102061.94
2023-04-03T22:03:22.306Z,102066.50
2023-04-03T22:05:51.434Z,102048.72
2023-04-03T22:08:19.465Z,102062.22
2023-04-03T22:10:47.529Z,102052.28
2023-04-03T22:13:15.380Z,102063.69
2023-04-03T22:15:44.111Z,102060.69
2023-04-03T22:18:12.360Z,102062.25
2023-04-03T22:20:40.184Z,102065.44
2023-04-03T22:23:09.330Z,102061.31
2023-04-03T22:25:37.017Z,102064.31
2023-04-03T22:28:04.842Z,102071.16
2023-04-03T22:30:32.549Z,102060.78
2023-04-03T22:33:00.310Z,102066.28
2023-04-03T22:35:27.988Z,102069.81
2023-04-03T22:37:56.361Z,102069.00
2023-04-03T22:40:25.596Z,102056.34
2023-04-03T22:42:54.069Z,102055.84
2023-04-03T22:45:21.726Z,102049.84
2023-04-03T22:48:01.635Z,102053.75
2023-04-03T22:50:29.688Z,102051.53
2023-04-03T22:52:57.377Z,102054.13
2023-04-03T22:55:26.668Z,102042.25
2023-04-03T22:57:54.382Z,102052.25
2023-04-03T23:00:22.181Z,102050.69
2023-04-03T23:02:49.863Z,102045.94
2023-04-03T23:05:17.882Z,102045.44
2023-04-03T23:07:45.594Z,102049.25
2023-04-03T23:10:13.381Z,102047.50
2023-04-03T23:12:51.742Z,102035.56
2023-04-03T23:15:19.687Z,102040.31
2023-04-03T23:17:49.720Z,102041.63
2023-04-03T23:20:17.655Z,102051.72
2023-04-03T23:22:45.670Z,102051.47
2023-04-03T23:25:13.425Z,102047.81
2023-04-03T23:27:41.346Z,102048.59
2023-04-03T23:30:11.589Z,102057.84
2023-04-03T23:32:39.276Z,102065.84
2023-04-03T23:35:07.748Z,102045.00
2023-04-03T23:37:35.975Z,102044.38
2023-04-03T23:40:03.724Z,102050.69
2023-04-03T23:42:31.461Z,102056.72
2023-04-03T23:44:59.121Z,102062.28
2023-04-03T23:47:28.554Z,102053.97
2023-04-03T23:49:56.293Z,102050.50
2023-04-03T23:52:24.008Z,102054.50
2023-04-03T23:54:51.717Z,102050.63
2023-04-03T23:57:19.489Z,102057.66
2023-04-03T23:59:47.183Z,102052.41
